• Join FlightAware (Why Join?)
  • Login
  • US Flag 
08:47AM EDT


 

Airport Tracker/Info


-or-


 

Live Flight TrackerFlight Track Log ✈ N884FT ✈ 03-Nov-2013 ✈ KMLB - KTPA

Flight Track Log - Related Links

Times and Time Zones

All times are in EST time to prevent confusion due to time zone crossing. See the N884FT flight status page for this flight to view local times or setup timezone preferences in your user account.

Time Position Orientation Groundspeed Altitude Reporting Facility
EST Latitude Longitude Course Direction KTS MPH feet Rate Location/Type
09:33AM 28.1000 -80.6667 270° West 90 104 600  Level Orlando TRACON
09:34AM 28.1000 -80.7000 270° West 107 123 1,800 720 Climbing Orlando TRACON
09:35AM 28.1000 -80.7333 270° West 112 129 2,200 300 Climbing Orlando TRACON
09:36AM 28.0833 -80.7667 240° Southwest 123 142 2,500 480 Climbing Orlando TRACON
09:37AM 28.0833 -80.8000 270° West 113 130 3,200 720 Climbing Orlando TRACON
09:38AM 28.0833 -80.8500 270° West 104 120 4,000 720 Climbing Orlando TRACON
09:39AM 28.0833 -80.8833 270° West 108 124 4,700 600 Climbing Orlando TRACON
09:40AM 28.0833 -80.9167 270° West 108 124 5,200 240 Climbing Orlando TRACON
09:41AM 28.0833 -80.9500 270° West 130 150 5,200 -60 Level Orlando TRACON
09:42AM 28.0833 -81.0000 270° West 138 159 5,100 -60 Descending Orlando TRACON
09:43AM 28.0833 -81.0333 270° West 135 155 5,100 180 Level Orlando TRACON
09:44AM 28.0833 -81.0833 270° West 121 139 5,600 420 Climbing Orlando TRACON
09:45AM 28.1000 -81.1167 300° West 125 144 6,000 240 Climbing Orlando TRACON
09:46AM 28.1000 -81.1500 270° West 135 155 6,100  Climbing Orlando TRACON
09:47AM 28.1000 -81.2000 270° West 146 168 6,100  Level Orlando TRACON
09:48AM 28.0833 -81.2333 240° Southwest 147 169 6,100  Level Orlando TRACON
09:49AM 28.0667 -81.2833 249° West 144 166 6,100  Level Orlando TRACON
09:50AM 28.0667 -81.3167 270° West 147 169 6,100  Level Orlando TRACON
09:51AM 28.0500 -81.3667 249° West 148 170 6,100  Level Orlando TRACON
09:52AM 28.0500 -81.4167 270° West 146 168 6,100  Level Orlando TRACON
09:53AM 28.0500 -81.4667 270° West 147 169 6,100  Level Orlando TRACON
09:54AM 28.0500 -81.5000 270° West 149 171 6,200  Climbing Orlando TRACON
09:55AM 28.0500 -81.5500 270° West 142 163 6,100 -60 Descending Orlando TRACON
09:57AM 28.0333 -81.6333 257° West 134 154 6,100 60 Level Tampa TRACON
09:58AM 28.0333 -81.6667 270° West 135 155 6,300  Climbing Tampa TRACON
09:59AM 28.0167 -81.7167 249° West 138 159 6,100 -120 Descending Tampa TRACON
10:00AM 28.0167 -81.7500 270° West 135 155 6,100  Level Tampa TRACON
10:01AM 28.0167 -81.7833 270° West 133 153 6,100  Level Tampa TRACON
10:02AM 28.0167 -81.8333 270° West 135 155 6,200  Climbing Tampa TRACON
10:03AM 28.0000 -81.8667 240° Southwest 140 161 6,100 -60 Descending Tampa TRACON
10:04AM 28.0000 -81.9167 270° West 138 159 6,100  Level Tampa TRACON
10:05AM 27.9833 -81.9500 240° Southwest 136 157 6,200  Climbing Tampa TRACON
10:06AM 27.9833 -82.0000 270° West 138 159 6,100 -60 Descending Tampa TRACON
10:07AM 27.9833 -82.0500 270° West 138 159 6,100  Level Tampa TRACON
10:08AM 27.9833 -82.0833 270° West 137 158 6,100  Level Tampa TRACON
10:09AM 27.9667 -82.1333 249° West 138 159 6,100  Level Tampa TRACON
10:10AM 27.9667 -82.1667 270° West 140 161 6,200  Climbing Tampa TRACON
10:11AM 27.9667 -82.2167 270° West 138 159 6,100 -540 Descending Tampa TRACON
10:12AM 27.9333 -82.2500 221° Southwest 149 171 5,200 -480 Descending Tampa TRACON
10:13AM 27.9167 -82.3000 249° West 134 154 5,100 -60 Descending Tampa TRACON
10:14AM 27.9000 -82.3333 241° Southwest 135 155 5,100 -120 Level Tampa TRACON
10:15AM 27.8667 -82.3667 221° Southwest 145 167 4,900 -540 Descending Tampa TRACON
10:16AM 27.8500 -82.4000 241° Southwest 144 166 4,100 -900 Descending Tampa TRACON
10:17AM 27.8167 -82.4333 221° Southwest 162 186 3,100 -720 Descending Tampa TRACON
10:18AM 27.7667 -82.4500 196° South 148 170 2,700 -240 Descending Tampa TRACON
10:19AM 27.7500 -82.4833 241° Southwest 144 166 2,700  Level Tampa TRACON
10:20AM 27.7667 -82.5000 318° Northwest 127 146 2,800  Climbing Tampa TRACON
10:21AM 27.7833 -82.5333 299° West 127 146 2,700 -60 Descending Tampa TRACON
10:22AM 27.8167 -82.5333 360° North 121 139 2,700  Level Tampa TRACON
10:23AM 27.8500 -82.5333 360° North 114 131 2,700 -360 Level Tampa TRACON
10:24AM 27.8833 -82.5333 360° North 102 117 2,000 -660 Descending Tampa TRACON
10:25AM 27.9167 -82.5333 360° North 101 116 1,400 -660 Descending Tampa TRACON
10:26AM 27.9333 -82.5333 360° North 96 110 700 -660 Descending Tampa TRACON